sensor_id;sensor_type;location;lat;lon;timestamp;temperature;humidity
65582;DHT22;52231;40.090;18.348;2022-09-03T00:02:11;20.30;82.00
65582;DHT22;52231;40.090;18.348;2022-09-03T00:07:34;20.30;82.00
65582;DHT22;52231;40.090;18.348;2022-09-03T00:10:10;20.20;82.10
65582;DHT22;52231;40.090;18.348;2022-09-03T00:12:42;20.20;82.20
65582;DHT22;52231;40.090;18.348;2022-09-03T00:15:16;20.10;82.30
65582;DHT22;52231;40.090;18.348;2022-09-03T00:18:06;20.20;82.40
65582;DHT22;52231;40.090;18.348;2022-09-03T00:20:40;20.10;82.40
65582;DHT22;52231;40.090;18.348;2022-09-03T00:23:29;20.20;82.40
65582;DHT22;52231;40.090;18.348;2022-09-03T00:28:45;20.10;82.40
65582;DHT22;52231;40.090;18.348;2022-09-03T00:31:19;20.10;82.40
65582;DHT22;52231;40.090;18.348;2022-09-03T00:36:58;20.10;82.40
65582;DHT22;52231;40.090;18.348;2022-09-03T00:39:27;20.10;82.50
65582;DHT22;52231;40.090;18.348;2022-09-03T00:42:11;20.00;82.50
65582;DHT22;52231;40.090;18.348;2022-09-03T00:56:27;19.90;82.60
65582;DHT22;52231;40.090;18.348;2022-09-03T01:13:16;19.80;82.90
65582;DHT22;52231;40.090;18.348;2022-09-03T01:27:14;19.70;83.60
65582;DHT22;52231;40.090;18.348;2022-09-03T01:38:05;19.60;83.80
65582;DHT22;52231;40.090;18.348;2022-09-03T01:40:49;19.60;83.90
65582;DHT22;52231;40.090;18.348;2022-09-03T01:43:33;19.60;83.90
65582;DHT22;52231;40.090;18.348;2022-09-03T01:46:25;19.60;84.00
65582;DHT22;52231;40.090;18.348;2022-09-03T01:52:02;19.60;84.10
65582;DHT22;52231;40.090;18.348;2022-09-03T02:02:43;19.60;84.30
65582;DHT22;52231;40.090;18.348;2022-09-03T02:05:23;19.60;84.40
65582;DHT22;52231;40.090;18.348;2022-09-03T02:10:51;19.60;84.50
65582;DHT22;52231;40.090;18.348;2022-09-03T02:13:38;19.60;84.50
65582;DHT22;52231;40.090;18.348;2022-09-03T02:16:15;19.50;84.50
65582;DHT22;52231;40.090;18.348;2022-09-03T02:18:56;19.60;84.60
65582;DHT22;52231;40.090;18.348;2022-09-03T02:21:36;19.50;84.70
65582;DHT22;52231;40.090;18.348;2022-09-03T02:24:06;19.50;84.80
65582;DHT22;52231;40.090;18.348;2022-09-03T02:26:34;19.50;84.80
65582;DHT22;52231;40.090;18.348;2022-09-03T02:29:03;19.50;84.90
65582;DHT22;52231;40.090;18.348;2022-09-03T02:31:31;19.50;85.10
65582;DHT22;52231;40.090;18.348;2022-09-03T02:33:59;19.50;85.10
65582;DHT22;52231;40.090;18.348;2022-09-03T02:36:31;19.50;85.20
65582;DHT22;52231;40.090;18.348;2022-09-03T02:39:00;19.50;85.30
65582;DHT22;52231;40.090;18.348;2022-09-03T02:41:28;19.50;85.40
65582;DHT22;52231;40.090;18.348;2022-09-03T02:46:44;19.50;85.40
65582;DHT22;52231;40.090;18.348;2022-09-03T02:49:13;19.50;85.50
65582;DHT22;52231;40.090;18.348;2022-09-03T02:51:42;19.50;85.60
65582;DHT22;52231;40.090;18.348;2022-09-03T02:54:12;19.40;85.60
65582;DHT22;52231;40.090;18.348;2022-09-03T02:56:41;19.50;85.70
65582;DHT22;52231;40.090;18.348;2022-09-03T02:59:09;19.50;85.80
65582;DHT22;52231;40.090;18.348;2022-09-03T03:01:37;19.50;85.80
65582;DHT22;52231;40.090;18.348;2022-09-03T03:04:06;19.50;85.80
65582;DHT22;52231;40.090;18.348;2022-09-03T03:06:34;19.50;85.80
65582;DHT22;52231;40.090;18.348;2022-09-03T03:09:02;19.50;85.80
65582;DHT22;52231;40.090;18.348;2022-09-03T03:11:32;19.50;85.90
65582;DHT22;52231;40.090;18.348;2022-09-03T03:14:00;19.50;85.90
65582;DHT22;52231;40.090;18.348;2022-09-03T03:16:28;19.50;85.90
65582;DHT22;52231;40.090;18.348;2022-09-03T03:18:56;19.50;86.00
65582;DHT22;52231;40.090;18.348;2022-09-03T03:21:25;19.50;86.10
65582;DHT22;52231;40.090;18.348;2022-09-03T03:23:53;19.50;86.10
65582;DHT22;52231;40.090;18.348;2022-09-03T03:26:22;19.50;86.10
65582;DHT22;52231;40.090;18.348;2022-09-03T03:28:58;19.40;86.10
65582;DHT22;52231;40.090;18.348;2022-09-03T03:31:26;19.50;86.20
65582;DHT22;52231;40.090;18.348;2022-09-03T03:33:56;19.50;86.20
65582;DHT22;52231;40.090;18.348;2022-09-03T03:36:27;19.50;86.20
65582;DHT22;52231;40.090;18.348;2022-09-03T03:38:57;19.50;86.20
65582;DHT22;52231;40.090;18.348;2022-09-03T03:41:31;19.50;86.20
65582;DHT22;52231;40.090;18.348;2022-09-03T03:44:02;19.40;86.30
65582;DHT22;52231;40.090;18.348;2022-09-03T03:46:33;19.40;86.30
65582;DHT22;52231;40.090;18.348;2022-09-03T03:49:02;19.40;86.40
65582;DHT22;52231;40.090;18.348;2022-09-03T03:51:31;19.40;86.50
65582;DHT22;52231;40.090;18.348;2022-09-03T03:53:59;19.30;86.50
65582;DHT22;52231;40.090;18.348;2022-09-03T03:56:31;19.30;86.60
65582;DHT22;52231;40.090;18.348;2022-09-03T03:58:59;19.30;86.70
65582;DHT22;52231;40.090;18.348;2022-09-03T04:01:28;19.30;86.70
65582;DHT22;52231;40.090;18.348;2022-09-03T04:03:57;19.30;86.80
65582;DHT22;52231;40.090;18.348;2022-09-03T04:06:27;19.30;86.80
65582;DHT22;52231;40.090;18.348;2022-09-03T04:08:55;19.30;86.80
65582;DHT22;52231;40.090;18.348;2022-09-03T04:11:24;19.30;86.80
65582;DHT22;52231;40.090;18.348;2022-09-03T04:13:52;19.20;86.80
65582;DHT22;52231;40.090;18.348;2022-09-03T04:16:25;19.20;86.80
65582;DHT22;52231;40.090;18.348;2022-09-03T04:18:55;19.30;86.80
65582;DHT22;52231;40.090;18.348;2022-09-03T04:21:26;19.20;86.80
65582;DHT22;52231;40.090;18.348;2022-09-03T04:23:55;19.20;86.70
65582;DHT22;52231;40.090;18.348;2022-09-03T04:26:26;19.20;86.70
65582;DHT22;52231;40.090;18.348;2022-09-03T04:28:59;19.20;86.70
65582;DHT22;52231;40.090;18.348;2022-09-03T04:31:28;19.20;86.60
65582;DHT22;52231;40.090;18.348;2022-09-03T04:33:57;19.20;86.60
65582;DHT22;52231;40.090;18.348;2022-09-03T04:36:30;19.30;86.60
65582;DHT22;52231;40.090;18.348;2022-09-03T04:38:59;19.30;86.60
65582;DHT22;52231;40.090;18.348;2022-09-03T04:41:29;19.40;86.40
65582;DHT22;52231;40.090;18.348;2022-09-03T04:43:58;19.50;86.30
65582;DHT22;52231;40.090;18.348;2022-09-03T04:46:28;19.60;86.10
65582;DHT22;52231;40.090;18.348;2022-09-03T04:49:02;19.80;85.70
65582;DHT22;52231;40.090;18.348;2022-09-03T04:51:30;19.90;85.30
65582;DHT22;52231;40.090;18.348;2022-09-03T04:54:00;20.10;84.90
65582;DHT22;52231;40.090;18.348;2022-09-03T04:56:31;20.30;84.50
65582;DHT22;52231;40.090;18.348;2022-09-03T04:59:08;20.60;83.90
65582;DHT22;52231;40.090;18.348;2022-09-03T05:01:38;20.90;83.10
65582;DHT22;52231;40.090;18.348;2022-09-03T05:04:25;21.20;82.20
65582;DHT22;52231;40.090;18.348;2022-09-03T05:06:53;21.40;81.10
65582;DHT22;52231;40.090;18.348;2022-09-03T05:09:21;21.60;80.60
65582;DHT22;52231;40.090;18.348;2022-09-03T05:11:49;21.90;80.00
65582;DHT22;52231;40.090;18.348;2022-09-03T05:14:17;22.10;78.80
65582;DHT22;52231;40.090;18.348;2022-09-03T05:16:45;22.40;78.00
65582;DHT22;52231;40.090;18.348;2022-09-03T05:19:13;22.70;77.10
65582;DHT22;52231;40.090;18.348;2022-09-03T05:21:41;22.90;76.20
65582;DHT22;52231;40.090;18.348;2022-09-03T05:24:10;23.10;74.90
65582;DHT22;52231;40.090;18.348;2022-09-03T05:26:38;23.30;74.60
65582;DHT22;52231;40.090;18.348;2022-09-03T05:29:06;23.50;73.70
65582;DHT22;52231;40.090;18.348;2022-09-03T05:31:38;23.80;73.10
65582;DHT22;52231;40.090;18.348;2022-09-03T05:34:06;24.00;72.50
65582;DHT22;52231;40.090;18.348;2022-09-03T05:36:36;24.10;71.80
65582;DHT22;52231;40.090;18.348;2022-09-03T05:39:05;24.30;71.00
65582;DHT22;52231;40.090;18.348;2022-09-03T05:41:34;24.40;70.70
65582;DHT22;52231;40.090;18.348;2022-09-03T05:44:02;24.70;70.30
65582;DHT22;52231;40.090;18.348;2022-09-03T05:46:32;24.90;69.20
65582;DHT22;52231;40.090;18.348;2022-09-03T05:49:03;25.10;68.80
65582;DHT22;52231;40.090;18.348;2022-09-03T05:51:34;25.30;67.90
65582;DHT22;52231;40.090;18.348;2022-09-03T05:54:02;25.50;67.30
65582;DHT22;52231;40.090;18.348;2022-09-03T05:56:32;25.70;66.20
65582;DHT22;52231;40.090;18.348;2022-09-03T05:59:04;25.80;66.20
65582;DHT22;52231;40.090;18.348;2022-09-03T06:01:38;26.00;65.70
65582;DHT22;52231;40.090;18.348;2022-09-03T06:04:11;26.20;65.00
65582;DHT22;52231;40.090;18.348;2022-09-03T06:06:42;26.30;64.70
65582;DHT22;52231;40.090;18.348;2022-09-03T06:09:13;26.60;64.20
65582;DHT22;52231;40.090;18.348;2022-09-03T06:11:44;26.60;63.90
65582;DHT22;52231;40.090;18.348;2022-09-03T06:14:14;26.70;63.90
65582;DHT22;52231;40.090;18.348;2022-09-03T06:16:45;26.80;63.50
65582;DHT22;52231;40.090;18.348;2022-09-03T06:19:16;26.80;63.20
65582;DHT22;52231;40.090;18.348;2022-09-03T06:21:45;27.00;63.10
65582;DHT22;52231;40.090;18.348;2022-09-03T06:24:19;27.20;63.10
65582;DHT22;52231;40.090;18.348;2022-09-03T06:26:50;27.30;62.60
65582;DHT22;52231;40.090;18.348;2022-09-03T06:29:18;27.50;62.20
65582;DHT22;52231;40.090;18.348;2022-09-03T06:31:46;27.60;62.00
65582;DHT22;52231;40.090;18.348;2022-09-03T06:34:15;27.60;61.70
65582;DHT22;52231;40.090;18.348;2022-09-03T06:36:45;27.70;61.80
65582;DHT22;52231;40.090;18.348;2022-09-03T06:39:13;27.90;61.60
65582;DHT22;52231;40.090;18.348;2022-09-03T06:41:41;28.00;61.00
65582;DHT22;52231;40.090;18.348;2022-09-03T06:44:11;28.20;60.50
65582;DHT22;52231;40.090;18.348;2022-09-03T06:46:40;28.20;60.50
65582;DHT22;52231;40.090;18.348;2022-09-03T06:49:10;28.40;60.40
65582;DHT22;52231;40.090;18.348;2022-09-03T06:51:39;28.60;59.40
65582;DHT22;52231;40.090;18.348;2022-09-03T06:54:09;28.70;58.40
65582;DHT22;52231;40.090;18.348;2022-09-03T06:56:39;28.80;58.70
65582;DHT22;52231;40.090;18.348;2022-09-03T06:59:12;28.80;57.60
65582;DHT22;52231;40.090;18.348;2022-09-03T07:01:41;28.90;58.00
65582;DHT22;52231;40.090;18.348;2022-09-03T07:04:13;29.00;57.80
65582;DHT22;52231;40.090;18.348;2022-09-03T07:06:43;29.00;57.20
65582;DHT22;52231;40.090;18.348;2022-09-03T07:09:13;29.00;56.70
65582;DHT22;52231;40.090;18.348;2022-09-03T07:11:42;29.10;57.20
65582;DHT22;52231;40.090;18.348;2022-09-03T07:14:19;29.20;56.70
65582;DHT22;52231;40.090;18.348;2022-09-03T07:16:48;29.30;56.30
65582;DHT22;52231;40.090;18.348;2022-09-03T07:19:17;29.50;56.20
65582;DHT22;52231;40.090;18.348;2022-09-03T07:21:45;29.60;56.40
65582;DHT22;52231;40.090;18.348;2022-09-03T07:24:17;29.50;56.10
65582;DHT22;52231;40.090;18.348;2022-09-03T07:27:04;29.60;55.60
65582;DHT22;52231;40.090;18.348;2022-09-03T07:29:34;29.80;55.40
65582;DHT22;52231;40.090;18.348;2022-09-03T07:32:02;29.80;55.30
65582;DHT22;52231;40.090;18.348;2022-09-03T07:34:31;29.90;55.10
65582;DHT22;52231;40.090;18.348;2022-09-03T07:37:02;30.10;54.40
65582;DHT22;52231;40.090;18.348;2022-09-03T07:39:32;30.30;53.60
65582;DHT22;52231;40.090;18.348;2022-09-03T07:42:01;30.50;52.40
65582;DHT22;52231;40.090;18.348;2022-09-03T07:44:29;30.60;52.80
65582;DHT22;52231;40.090;18.348;2022-09-03T07:46:57;30.60;52.60
65582;DHT22;52231;40.090;18.348;2022-09-03T07:49:25;30.80;52.50
65582;DHT22;52231;40.090;18.348;2022-09-03T07:51:53;30.90;51.90
65582;DHT22;52231;40.090;18.348;2022-09-03T07:54:22;31.00;50.30
65582;DHT22;52231;40.090;18.348;2022-09-03T07:56:52;30.90;50.40
65582;DHT22;52231;40.090;18.348;2022-09-03T07:59:20;31.10;50.50
65582;DHT22;52231;40.090;18.348;2022-09-03T08:01:49;31.20;50.40
65582;DHT22;52231;40.090;18.348;2022-09-03T08:04:17;31.30;49.70
65582;DHT22;52231;40.090;18.348;2022-09-03T08:06:45;31.30;50.10
65582;DHT22;52231;40.090;18.348;2022-09-03T08:09:14;31.30;49.90
65582;DHT22;52231;40.090;18.348;2022-09-03T08:11:43;31.40;49.30
65582;DHT22;52231;40.090;18.348;2022-09-03T08:14:12;31.70;49.80
65582;DHT22;52231;40.090;18.348;2022-09-03T08:16:45;31.80;48.10
65582;DHT22;52231;40.090;18.348;2022-09-03T08:19:17;31.90;48.20
65582;DHT22;52231;40.090;18.348;2022-09-03T08:21:46;32.00;48.00
65582;DHT22;52231;40.090;18.348;2022-09-03T08:24:16;31.90;48.00
65582;DHT22;52231;40.090;18.348;2022-09-03T08:26:44;32.00;47.30
65582;DHT22;52231;40.090;18.348;2022-09-03T08:29:17;32.20;47.60
65582;DHT22;52231;40.090;18.348;2022-09-03T08:31:45;32.30;46.80
65582;DHT22;52231;40.090;18.348;2022-09-03T08:34:13;32.40;46.70
65582;DHT22;52231;40.090;18.348;2022-09-03T08:37:03;32.50;46.80
65582;DHT22;52231;40.090;18.348;2022-09-03T08:39:32;32.60;46.20
65582;DHT22;52231;40.090;18.348;2022-09-03T08:44:45;32.60;46.00
65582;DHT22;52231;40.090;18.348;2022-09-03T08:47:42;32.30;46.30
65582;DHT22;52231;40.090;18.348;2022-09-03T08:53:16;32.60;45.70
65582;DHT22;52231;40.090;18.348;2022-09-03T08:56:03;32.40;46.00
65582;DHT22;52231;40.090;18.348;2022-09-03T08:58:35;32.40;46.30
65582;DHT22;52231;40.090;18.348;2022-09-03T09:01:39;32.70;45.70
65582;DHT22;52231;40.090;18.348;2022-09-03T09:23:37;34.00;40.80
65582;DHT22;52231;40.090;18.348;2022-09-03T09:26:10;34.20;41.20
65582;DHT22;52231;40.090;18.348;2022-09-03T09:28:41;34.40;40.30
65582;DHT22;52231;40.090;18.348;2022-09-03T09:31:14;34.70;40.00
65582;DHT22;52231;40.090;18.348;2022-09-03T09:33:45;34.90;39.80
65582;DHT22;52231;40.090;18.348;2022-09-03T09:36:16;35.00;39.80
65582;DHT22;52231;40.090;18.348;2022-09-03T09:38:46;34.90;39.20
65582;DHT22;52231;40.090;18.348;2022-09-03T09:41:16;34.30;40.10
65582;DHT22;52231;40.090;18.348;2022-09-03T09:43:47;34.20;38.70
65582;DHT22;52231;40.090;18.348;2022-09-03T09:46:20;34.20;37.10
65582;DHT22;52231;40.090;18.348;2022-09-03T09:48:57;34.00;37.80
65582;DHT22;52231;40.090;18.348;2022-09-03T09:51:28;34.20;37.70
65582;DHT22;52231;40.090;18.348;2022-09-03T09:54:16;34.40;37.80
65582;DHT22;52231;40.090;18.348;2022-09-03T09:56:59;34.10;37.50
65582;DHT22;52231;40.090;18.348;2022-09-03T09:59:28;34.10;37.40
65582;DHT22;52231;40.090;18.348;2022-09-03T10:02:25;34.30;36.80
65582;DHT22;52231;40.090;18.348;2022-09-03T10:05:11;34.30;37.60
65582;DHT22;52231;40.090;18.348;2022-09-03T10:07:40;34.30;37.20
65582;DHT22;52231;40.090;18.348;2022-09-03T10:10:21;34.60;36.50
65582;DHT22;52231;40.090;18.348;2022-09-03T10:12:52;34.40;36.60
65582;DHT22;52231;40.090;18.348;2022-09-03T10:21:38;35.20;36.90
65582;DHT22;52231;40.090;18.348;2022-09-03T10:24:33;35.40;35.50
65582;DHT22;52231;40.090;18.348;2022-09-03T10:27:08;35.30;34.90
65582;DHT22;52231;40.090;18.348;2022-09-03T10:29:39;35.50;34.40
65582;DHT22;52231;40.090;18.348;2022-09-03T10:34:44;35.70;34.20
65582;DHT22;52231;40.090;18.348;2022-09-03T10:37:40;35.60;34.60
65582;DHT22;52231;40.090;18.348;2022-09-03T10:46:19;35.60;34.60
65582;DHT22;52231;40.090;18.348;2022-09-03T11:05:15;35.40;33.90
65582;DHT22;52231;40.090;18.348;2022-09-03T11:07:52;35.30;32.40
65582;DHT22;52231;40.090;18.348;2022-09-03T11:10:36;35.30;31.90
65582;DHT22;52231;40.090;18.348;2022-09-03T11:13:19;35.30;31.50
65582;DHT22;52231;40.090;18.348;2022-09-03T11:15:59;35.30;31.90
65582;DHT22;52231;40.090;18.348;2022-09-03T11:18:48;35.00;32.10
65582;DHT22;52231;40.090;18.348;2022-09-03T11:21:20;35.10;33.10
65582;DHT22;52231;40.090;18.348;2022-09-03T11:24:12;35.40;33.10
65582;DHT22;52231;40.090;18.348;2022-09-03T11:27:14;35.10;32.40
65582;DHT22;52231;40.090;18.348;2022-09-03T11:30:10;35.10;33.00
65582;DHT22;52231;40.090;18.348;2022-09-03T11:32:58;35.30;33.00
65582;DHT22;52231;40.090;18.348;2022-09-03T11:35:38;35.10;33.80
65582;DHT22;52231;40.090;18.348;2022-09-03T11:38:23;35.30;34.60
65582;DHT22;52231;40.090;18.348;2022-09-03T11:41:22;34.90;34.00
65582;DHT22;52231;40.090;18.348;2022-09-03T11:43:51;35.20;32.90
65582;DHT22;52231;40.090;18.348;2022-09-03T11:46:39;34.80;33.20
65582;DHT22;52231;40.090;18.348;2022-09-03T11:49:11;34.70;33.20
65582;DHT22;52231;40.090;18.348;2022-09-03T11:51:40;34.90;33.40
65582;DHT22;52231;40.090;18.348;2022-09-03T11:56:43;35.70;33.50
65582;DHT22;52231;40.090;18.348;2022-09-03T12:08:05;35.30;34.10
65582;DHT22;52231;40.090;18.348;2022-09-03T12:13:32;34.20;35.20
65582;DHT22;52231;40.090;18.348;2022-09-03T12:21:59;34.50;35.00
65582;DHT22;52231;40.090;18.348;2022-09-03T12:24:31;34.60;34.90
65582;DHT22;52231;40.090;18.348;2022-09-03T12:27:04;34.30;37.00
65582;DHT22;52231;40.090;18.348;2022-09-03T12:29:32;33.90;37.10
65582;DHT22;52231;40.090;18.348;2022-09-03T12:32:10;33.60;37.40
65582;DHT22;52231;40.090;18.348;2022-09-03T12:34:40;33.80;37.10
65582;DHT22;52231;40.090;18.348;2022-09-03T12:37:20;33.70;37.70
65582;DHT22;52231;40.090;18.348;2022-09-03T12:40:25;33.20;38.30
65582;DHT22;52231;40.090;18.348;2022-09-03T12:42:54;32.40;39.30
65582;DHT22;52231;40.090;18.348;2022-09-03T12:45:48;32.00;40.80
65582;DHT22;52231;40.090;18.348;2022-09-03T12:48:38;31.80;41.60
65582;DHT22;52231;40.090;18.348;2022-09-03T12:51:10;32.00;41.20
65582;DHT22;52231;40.090;18.348;2022-09-03T12:53:58;31.90;41.80
65582;DHT22;52231;40.090;18.348;2022-09-03T12:56:29;31.70;42.30
65582;DHT22;52231;40.090;18.348;2022-09-03T12:59:09;31.60;42.60
65582;DHT22;52231;40.090;18.348;2022-09-03T13:02:00;31.40;45.00
65582;DHT22;52231;40.090;18.348;2022-09-03T13:04:35;31.30;47.20
65582;DHT22;52231;40.090;18.348;2022-09-03T13:07:10;31.30;46.30
65582;DHT22;52231;40.090;18.348;2022-09-03T13:09:40;31.40;47.40
65582;DHT22;52231;40.090;18.348;2022-09-03T13:12:31;31.60;46.90
65582;DHT22;52231;40.090;18.348;2022-09-03T13:15:08;31.80;46.90
65582;DHT22;52231;40.090;18.348;2022-09-03T13:23:38;31.90;47.50
65582;DHT22;52231;40.090;18.348;2022-09-03T13:26:14;31.30;48.50
65582;DHT22;52231;40.090;18.348;2022-09-03T13:31:54;30.80;49.10
65582;DHT22;52231;40.090;18.348;2022-09-03T13:34:38;30.70;49.60
65582;DHT22;52231;40.090;18.348;2022-09-03T13:42:54;30.60;50.50
65582;DHT22;52231;40.090;18.348;2022-09-03T13:45:40;30.70;51.00
65582;DHT22;52231;40.090;18.348;2022-09-03T13:48:23;30.80;50.70
65582;DHT22;52231;40.090;18.348;2022-09-03T13:51:16;30.80;50.90
65582;DHT22;52231;40.090;18.348;2022-09-03T13:57:00;30.70;49.90
65582;DHT22;52231;40.090;18.348;2022-09-03T13:59:52;30.40;51.40
65582;DHT22;52231;40.090;18.348;2022-09-03T14:02:51;30.50;51.40
65582;DHT22;52231;40.090;18.348;2022-09-03T14:11:12;30.90;50.60
65582;DHT22;52231;40.090;18.348;2022-09-03T14:14:18;31.10;50.80
65582;DHT22;52231;40.090;18.348;2022-09-03T14:19:54;30.80;52.00
65582;DHT22;52231;40.090;18.348;2022-09-03T14:25:32;30.90;51.80
65582;DHT22;52231;40.090;18.348;2022-09-03T14:28:44;30.70;51.70
65582;DHT22;52231;40.090;18.348;2022-09-03T14:32:17;30.40;52.10
65582;DHT22;52231;40.090;18.348;2022-09-03T14:37:57;30.00;53.40
65582;DHT22;52231;40.090;18.348;2022-09-03T14:40:41;30.00;53.60
65582;DHT22;52231;40.090;18.348;2022-09-03T14:47:22;29.80;54.80
65582;DHT22;52231;40.090;18.348;2022-09-03T14:49:42;29.50;55.00
65582;DHT22;52231;40.090;18.348;2022-09-03T14:52:28;29.30;56.40
65582;DHT22;52231;40.090;18.348;2022-09-03T14:55:20;29.20;56.20
65582;DHT22;52231;40.090;18.348;2022-09-03T15:06:01;28.80;56.60
65582;DHT22;52231;40.090;18.348;2022-09-03T15:11:32;28.90;56.90
65582;DHT22;52231;40.090;18.348;2022-09-03T15:29:01;28.90;53.60
65582;DHT22;52231;40.090;18.348;2022-09-03T15:37:57;29.30;53.20
65582;DHT22;52231;40.090;18.348;2022-09-03T15:43:04;29.30;51.00
65582;DHT22;52231;40.090;18.348;2022-09-03T15:45:50;29.30;52.00
65582;DHT22;52231;40.090;18.348;2022-09-03T15:51:46;29.10;53.60
65582;DHT22;52231;40.090;18.348;2022-09-03T15:54:29;29.00;54.10
65582;DHT22;52231;40.090;18.348;2022-09-03T15:57:21;28.90;53.80
65582;DHT22;52231;40.090;18.348;2022-09-03T16:00:05;28.80;54.00
65582;DHT22;52231;40.090;18.348;2022-09-03T16:05:27;28.80;54.90
65582;DHT22;52231;40.090;18.348;2022-09-03T16:08:21;28.60;56.80
65582;DHT22;52231;40.090;18.348;2022-09-03T16:11:09;28.40;57.40
65582;DHT22;52231;40.090;18.348;2022-09-03T16:20:03;28.10;58.70
65582;DHT22;52231;40.090;18.348;2022-09-03T16:22:47;28.00;59.00
65582;DHT22;52231;40.090;18.348;2022-09-03T16:25:29;28.00;58.90
65582;DHT22;52231;40.090;18.348;2022-09-03T16:28:26;27.80;58.70
65582;DHT22;52231;40.090;18.348;2022-09-03T16:31:09;27.80;59.30
65582;DHT22;52231;40.090;18.348;2022-09-03T16:36:45;27.60;59.90
65582;DHT22;52231;40.090;18.348;2022-09-03T16:50:29;27.30;55.70
65582;DHT22;52231;40.090;18.348;2022-09-03T16:56:02;27.10;54.50
65582;DHT22;52231;40.090;18.348;2022-09-03T16:58:56;27.00;53.30
65582;DHT22;52231;40.090;18.348;2022-09-03T17:13:00;26.70;58.90
65582;DHT22;52231;40.090;18.348;2022-09-03T17:21:06;26.50;61.40
65582;DHT22;52231;40.090;18.348;2022-09-03T17:29:46;26.10;64.10
65582;DHT22;52231;40.090;18.348;2022-09-03T17:37:55;25.90;65.10
65582;DHT22;52231;40.090;18.348;2022-09-03T17:48:53;25.40;67.10
65582;DHT22;52231;40.090;18.348;2022-09-03T17:54:37;25.30;68.20
65582;DHT22;52231;40.090;18.348;2022-09-03T17:57:17;25.30;68.80
65582;DHT22;52231;40.090;18.348;2022-09-03T18:00:02;25.30;69.20
65582;DHT22;52231;40.090;18.348;2022-09-03T18:05:23;25.20;69.70
65582;DHT22;52231;40.090;18.348;2022-09-03T18:16:28;25.10;70.90
65582;DHT22;52231;40.090;18.348;2022-09-03T18:19:27;25.10;71.10
65582;DHT22;52231;40.090;18.348;2022-09-03T18:22:01;25.10;71.20
65582;DHT22;52231;40.090;18.348;2022-09-03T18:24:53;25.00;71.50
65582;DHT22;52231;40.090;18.348;2022-09-03T18:27:45;25.00;71.50
65582;DHT22;52231;40.090;18.348;2022-09-03T18:30:33;25.00;71.80
65582;DHT22;52231;40.090;18.348;2022-09-03T18:33:23;24.90;72.00
65582;DHT22;52231;40.090;18.348;2022-09-03T18:36:11;24.90;72.30
65582;DHT22;52231;40.090;18.348;2022-09-03T18:39:14;24.90;72.60
65582;DHT22;52231;40.090;18.348;2022-09-03T18:49:31;24.80;73.20
65582;DHT22;52231;40.090;18.348;2022-09-03T18:55:33;24.60;73.60
65582;DHT22;52231;40.090;18.348;2022-09-03T19:02:26;24.50;74.30
65582;DHT22;52231;40.090;18.348;2022-09-03T19:06:04;24.40;74.70
65582;DHT22;52231;40.090;18.348;2022-09-03T19:08:53;24.30;74.90
65582;DHT22;52231;40.090;18.348;2022-09-03T19:14:37;24.30;75.30
65582;DHT22;52231;40.090;18.348;2022-09-03T19:24:03;24.10;75.90
65582;DHT22;52231;40.090;18.348;2022-09-03T19:30:26;24.00;76.10
65582;DHT22;52231;40.090;18.348;2022-09-03T19:39:59;23.80;76.50
65582;DHT22;52231;40.090;18.348;2022-09-03T19:46:16;23.70;77.30
65582;DHT22;52231;40.090;18.348;2022-09-03T19:55:20;23.60;77.50
65582;DHT22;52231;40.090;18.348;2022-09-03T19:58:12;23.60;77.30
65582;DHT22;52231;40.090;18.348;2022-09-03T20:01:11;23.50;77.60
65582;DHT22;52231;40.090;18.348;2022-09-03T20:04:03;23.40;78.10
65582;DHT22;52231;40.090;18.348;2022-09-03T20:06:52;23.40;78.40
65582;DHT22;52231;40.090;18.348;2022-09-03T20:09:41;23.40;78.40
65582;DHT22;52231;40.090;18.348;2022-09-03T20:12:33;23.30;78.40
65582;DHT22;52231;40.090;18.348;2022-09-03T20:15:05;23.30;78.60
65582;DHT22;52231;40.090;18.348;2022-09-03T20:17:48;23.30;78.70
65582;DHT22;52231;40.090;18.348;2022-09-03T20:26:39;23.20;78.80
65582;DHT22;52231;40.090;18.348;2022-09-03T20:41:16;22.90;78.90
65582;DHT22;52231;40.090;18.348;2022-09-03T20:46:37;22.80;78.90
65582;DHT22;52231;40.090;18.348;2022-09-03T20:57:34;22.70;79.70
65582;DHT22;52231;40.090;18.348;2022-09-03T21:00:08;22.70;79.80
65582;DHT22;52231;40.090;18.348;2022-09-03T21:05:40;22.80;79.60
65582;DHT22;52231;40.090;18.348;2022-09-03T21:08:29;22.70;79.50
65582;DHT22;52231;40.090;18.348;2022-09-03T21:11:16;22.70;79.60
65582;DHT22;52231;40.090;18.348;2022-09-03T21:25:01;22.50;79.50
65582;DHT22;52231;40.090;18.348;2022-09-03T21:27:39;22.40;79.70
65582;DHT22;52231;40.090;18.348;2022-09-03T21:30:13;22.40;79.90
65582;DHT22;52231;40.090;18.348;2022-09-03T21:35:34;22.30;80.10
65582;DHT22;52231;40.090;18.348;2022-09-03T21:38:08;22.30;80.40
65582;DHT22;52231;40.090;18.348;2022-09-03T21:40:46;22.30;80.50
65582;DHT22;52231;40.090;18.348;2022-09-03T21:44:20;22.30;80.40
65582;DHT22;52231;40.090;18.348;2022-09-03T21:46:56;22.20;80.40
65582;DHT22;52231;40.090;18.348;2022-09-03T21:49:34;22.30;80.20
65582;DHT22;52231;40.090;18.348;2022-09-03T21:52:10;22.20;80.30
65582;DHT22;52231;40.090;18.348;2022-09-03T21:54:39;22.20;80.30
65582;DHT22;52231;40.090;18.348;2022-09-03T22:00:27;22.00;80.40
65582;DHT22;52231;40.090;18.348;2022-09-03T22:03:05;22.00;80.60
65582;DHT22;52231;40.090;18.348;2022-09-03T22:06:00;21.90;80.80
65582;DHT22;52231;40.090;18.348;2022-09-03T22:08:35;21.90;80.80
65582;DHT22;52231;40.090;18.348;2022-09-03T22:11:14;21.80;80.90
65582;DHT22;52231;40.090;18.348;2022-09-03T22:13:50;21.80;81.10
65582;DHT22;52231;40.090;18.348;2022-09-03T22:16:26;21.80;81.40
65582;DHT22;52231;40.090;18.348;2022-09-03T22:18:58;21.80;81.70
65582;DHT22;52231;40.090;18.348;2022-09-03T22:27:03;21.80;82.90
65582;DHT22;52231;40.090;18.348;2022-09-03T22:30:09;21.80;83.00
65582;DHT22;52231;40.090;18.348;2022-09-03T22:32:57;21.80;83.10
65582;DHT22;52231;40.090;18.348;2022-09-03T22:50:56;21.80;82.60
65582;DHT22;52231;40.090;18.348;2022-09-03T22:56:20;21.80;82.60
65582;DHT22;52231;40.090;18.348;2022-09-03T22:59:04;21.70;82.50
65582;DHT22;52231;40.090;18.348;2022-09-03T23:01:43;21.70;82.50
65582;DHT22;52231;40.090;18.348;2022-09-03T23:07:05;21.80;82.30
65582;DHT22;52231;40.090;18.348;2022-09-03T23:09:40;21.70;82.00
65582;DHT22;52231;40.090;18.348;2022-09-03T23:12:17;21.60;81.90
65582;DHT22;52231;40.090;18.348;2022-09-03T23:14:53;21.60;81.90